createdAt,value
2023-12-13T00:29:57.208Z,2.87
2023-12-13T00:32:22.693Z,2.23
2023-12-13T00:34:45.931Z,2.40
2023-12-13T00:37:08.365Z,2.37
2023-12-13T00:39:31.197Z,2.70
2023-12-13T00:41:54.694Z,2.20
2023-12-13T00:44:17.039Z,2.90
2023-12-13T00:50:17.222Z,2.47
2023-12-13T00:52:39.743Z,2.50
2023-12-13T00:58:06.985Z,2.50
2023-12-13T01:00:30.817Z,2.30
2023-12-13T01:02:53.794Z,3.40
2023-12-13T01:05:42.016Z,3.20
2023-12-13T01:08:30.963Z,2.47
2023-12-13T01:10:54.157Z,2.47
2023-12-13T01:13:48.015Z,2.87
2023-12-13T01:16:22.254Z,2.97
2023-12-13T01:18:45.815Z,2.50
2023-12-13T01:21:08.350Z,2.90
2023-12-13T01:23:33.592Z,2.63
2023-12-13T01:25:55.953Z,2.80
2023-12-13T01:28:18.369Z,3.57
2023-12-13T02:49:54.144Z,3.47
2023-12-13T02:53:18.363Z,3.40
2023-12-13T02:59:51.574Z,3.40
2023-12-13T03:09:43.830Z,3.53
2023-12-13T03:12:06.533Z,2.87
2023-12-13T03:18:47.629Z,3.23
2023-12-13T03:25:09.299Z,3.10
2023-12-13T03:27:38.477Z,3.07
2023-12-13T03:30:02.112Z,3.30
2023-12-13T03:32:50.193Z,3.27
2023-12-13T04:06:19.793Z,3.60
2023-12-13T04:08:42.658Z,3.37
2023-12-13T04:11:05.189Z,3.50
2023-12-13T04:13:30.698Z,2.87
2023-12-13T04:16:02.437Z,2.80
2023-12-13T04:18:45.274Z,2.50
2023-12-13T04:21:13.727Z,2.23
2023-12-13T04:23:36.149Z,3.10
2023-12-13T04:25:58.535Z,2.10
2023-12-13T04:28:23.055Z,2.07
2023-12-13T04:31:09.398Z,2.17
2023-12-13T04:36:45.691Z,2.23
2023-12-13T04:46:46.422Z,2.57
2023-12-13T04:53:05.227Z,2.33
2023-12-13T04:55:36.876Z,2.43
2023-12-13T04:58:00.887Z,2.03
2023-12-13T05:00:50.238Z,3.00
2023-12-13T05:03:23.635Z,2.00
2023-12-13T05:06:01.055Z,2.40
2023-12-13T05:11:46.008Z,2.27
2023-12-13T05:14:08.786Z,2.27
2023-12-13T05:16:31.477Z,2.10
2023-12-13T05:19:13.098Z,2.63
2023-12-13T05:22:36.126Z,2.37
2023-12-13T05:24:59.030Z,2.87
2023-12-13T05:31:01.005Z,2.40
2023-12-13T05:33:23.805Z,2.90
2023-12-13T05:35:46.187Z,2.80
2023-12-13T05:38:08.703Z,2.43
2023-12-13T05:40:32.809Z,2.53
2023-12-13T05:43:16.046Z,2.40
2023-12-13T05:46:07.147Z,2.20
2023-12-13T05:48:29.732Z,2.50
2023-12-13T05:50:52.297Z,2.90
2023-12-13T05:53:18.128Z,2.07
2023-12-13T06:10:31.926Z,1.90
2023-12-13T06:19:22.963Z,2.10
2023-12-13T06:40:33.630Z,1.60
2023-12-13T06:44:23.970Z,1.20
2023-12-13T06:51:26.247Z,1.40
2023-12-13T06:57:17.781Z,1.30
2023-12-13T06:59:40.133Z,1.77
2023-12-13T07:02:03.189Z,1.73
2023-12-13T07:04:27.929Z,1.67
2023-12-13T07:06:51.101Z,2.00
2023-12-13T07:09:19.293Z,1.70
2023-12-13T07:11:46.290Z,1.87
2023-12-13T07:41:09.412Z,1.80
2023-12-13T07:44:00.943Z,2.10
2023-12-13T07:49:33.088Z,2.37
2023-12-13T07:52:27.807Z,2.37
2023-12-13T07:58:50.173Z,2.00
2023-12-13T08:01:36.685Z,2.10
2023-12-13T08:14:40.454Z,1.97
2023-12-13T08:17:47.154Z,3.83
2023-12-13T08:20:09.693Z,3.03
2023-12-13T08:22:32.471Z,2.77
2023-12-13T08:24:57.399Z,2.23
2023-12-13T08:43:20.592Z,2.13
2023-12-13T08:46:24.047Z,2.40
2023-12-13T08:50:18.147Z,2.53
2023-12-13T08:56:24.023Z,2.30
2023-12-13T09:02:47.291Z,1.80
2023-12-13T09:25:15.980Z,2.30
2023-12-13T09:28:07.164Z,2.67
2023-12-13T09:31:10.107Z,2.97
2023-12-13T09:33:33.227Z,2.90
2023-12-13T09:36:23.853Z,2.60
2023-12-13T09:46:58.074Z,2.37
2023-12-13T09:49:32.992Z,2.07
2023-12-13T09:52:12.613Z,1.80
2023-12-13T09:54:38.103Z,1.77
2023-12-13T09:57:00.875Z,1.83
2023-12-13T09:59:23.474Z,2.47
2023-12-13T10:01:46.077Z,1.83
2023-12-13T10:04:08.422Z,1.70
2023-12-13T10:06:33.726Z,1.87
2023-12-13T10:08:59.418Z,2.00
2023-12-13T10:11:32.076Z,2.20
2023-12-13T10:13:57.992Z,1.80
2023-12-13T10:16:22.272Z,2.50
2023-12-13T10:33:29.218Z,1.87
2023-12-13T10:36:26.466Z,2.63
2023-12-13T10:42:50.046Z,2.50
2023-12-13T10:45:17.481Z,2.03
2023-12-13T10:59:23.798Z,1.90
2023-12-13T11:10:02.390Z,2.17
2023-12-13T11:12:56.456Z,2.10
2023-12-13T11:15:58.882Z,1.70
2023-12-13T11:23:21.919Z,1.77
2023-12-13T11:27:28.102Z,1.70
2023-12-13T11:36:58.421Z,1.37
2023-12-13T11:39:45.778Z,1.40
2023-12-13T11:42:18.087Z,1.57
2023-12-13T11:45:10.403Z,1.10
2023-12-13T11:48:34.424Z,1.80
2023-12-13T12:09:51.899Z,1.20
2023-12-13T12:12:42.034Z,1.20
2023-12-13T12:15:24.714Z,1.27
2023-12-13T12:18:17.436Z,1.03
2023-12-13T12:21:05.405Z,1.20
2023-12-13T12:23:35.932Z,1.27
2023-12-13T12:26:01.501Z,1.10
2023-12-13T12:28:24.658Z,1.10
2023-12-13T12:30:48.891Z,1.23
2023-12-13T12:33:33.371Z,1.17
2023-12-13T12:36:07.294Z,1.47
2023-12-13T12:46:07.661Z,1.00
2023-12-13T12:49:16.843Z,1.40
2023-12-13T12:56:16.510Z,1.03
2023-12-13T13:07:18.736Z,1.50
2023-12-13T13:10:32.237Z,1.50
2023-12-13T13:12:58.650Z,1.50
2023-12-13T13:15:23.761Z,1.80
2023-12-13T13:17:50.305Z,1.90
2023-12-13T13:23:27.892Z,2.13
2023-12-13T13:26:08.023Z,1.70
2023-12-13T13:28:36.918Z,2.10
2023-12-13T13:31:04.596Z,1.90
2023-12-13T13:33:27.880Z,1.90
2023-12-13T13:36:18.537Z,1.77
2023-12-13T13:39:28.969Z,2.47
2023-12-13T13:42:00.701Z,2.00
2023-12-13T13:45:13.757Z,2.03
2023-12-13T13:47:37.261Z,2.10
2023-12-13T14:05:37.192Z,1.60
2023-12-13T14:09:00.528Z,1.40
2023-12-13T14:12:12.110Z,1.50
2023-12-13T14:32:05.655Z,1.40
2023-12-13T14:35:08.898Z,1.50
2023-12-13T15:04:28.165Z,1.80
2023-12-13T15:07:25.368Z,2.13
2023-12-13T15:26:25.606Z,2.20
2023-12-13T16:37:59.086Z,2.60
2023-12-13T16:48:25.398Z,3.30
2023-12-13T16:55:06.267Z,2.30
2023-12-13T19:46:51.810Z,7.97
2023-12-13T20:00:53.838Z,8.57
2023-12-13T20:42:40.200Z,9.60
2023-12-13T20:55:12.613Z,10.33
2023-12-13T20:58:26.209Z,8.40
2023-12-13T21:01:41.321Z,9.40
2023-12-13T21:04:24.437Z,9.00
2023-12-13T21:07:37.232Z,9.30
2023-12-13T21:10:10.475Z,10.20
2023-12-13T21:12:44.997Z,10.07
2023-12-13T21:15:18.442Z,10.87
2023-12-13T21:18:26.468Z,11.57
2023-12-13T21:21:35.751Z,11.03
2023-12-13T21:34:57.700Z,10.20
2023-12-13T21:37:43.029Z,10.43
2023-12-13T21:40:47.450Z,10.27
2023-12-13T21:43:51.758Z,10.07
2023-12-13T21:47:02.582Z,10.20
2023-12-13T21:49:39.356Z,11.00
2023-12-13T21:59:09.166Z,10.53
2023-12-13T22:27:35.099Z,12.03
2023-12-13T22:58:12.740Z,10.83
2023-12-13T23:01:33.010Z,10.97
2023-12-13T23:05:08.966Z,10.70
2023-12-13T23:32:12.042Z,8.50
2023-12-13T23:39:18.968Z,9.53
2023-12-13T23:42:04.333Z,9.03
2023-12-13T23:45:10.023Z,9.67
2023-12-13T23:47:33.534Z,8.40
2023-12-13T23:53:44.167Z,9.30
2023-12-13T23:56:35.135Z,9.33
2023-12-13T23:59:04.603Z,8.77
